createdAt,value
2018-07-10T00:02:35.275Z,16.20
2018-07-10T00:07:18.355Z,16.10
2018-07-10T00:10:02.673Z,16.10
2018-07-10T00:12:31.174Z,16.00
2018-07-10T00:14:59.611Z,16.10
2018-07-10T00:17:28.057Z,16.10
2018-07-10T00:19:56.573Z,16.10
2018-07-10T00:22:25.054Z,16.10
2018-07-10T00:24:53.554Z,16.10
2018-07-10T00:27:22.016Z,16.00
2018-07-10T00:29:50.485Z,16.00
2018-07-10T00:37:15.300Z,16.00
2018-07-10T00:39:43.808Z,16.00
2018-07-10T00:42:12.265Z,16.10
2018-07-10T00:44:40.746Z,16.10
2018-07-10T00:49:37.445Z,16.00
2018-07-10T00:52:05.928Z,16.00
2018-07-10T00:54:34.436Z,16.00
2018-07-10T00:57:02.985Z,15.90
2018-07-10T00:59:31.614Z,15.90
2018-07-10T01:02:00.129Z,15.90
2018-07-10T01:04:28.638Z,15.90
2018-07-10T01:06:57.113Z,15.90
2018-07-10T01:09:25.626Z,15.90
2018-07-10T01:11:54.124Z,15.90
2018-07-10T01:14:22.618Z,15.90
2018-07-10T01:16:51.093Z,15.90
2018-07-10T01:19:19.555Z,15.90
2018-07-10T01:21:48.729Z,15.90
2018-07-10T01:24:18.492Z,15.90
2018-07-10T01:26:48.662Z,15.90
2018-07-10T01:29:22.581Z,16.00
2018-07-10T01:31:52.842Z,16.00
2018-07-10T01:34:21.940Z,16.00
2018-07-10T01:36:50.665Z,16.00
2018-07-10T01:39:19.166Z,16.00
2018-07-10T01:41:47.718Z,16.00
2018-07-10T01:44:16.213Z,16.00
2018-07-10T01:46:45.031Z,16.00
2018-07-10T01:51:41.664Z,16.00
2018-07-10T01:54:10.179Z,16.00
2018-07-10T01:56:38.768Z,16.10
2018-07-10T01:59:07.328Z,16.10
2018-07-10T02:01:35.902Z,16.10
2018-07-10T02:04:04.827Z,16.10
2018-07-10T02:06:33.362Z,16.10
2018-07-10T02:09:01.882Z,16.00
2018-07-10T02:11:30.388Z,16.00
2018-07-10T02:13:58.962Z,16.00
2018-07-10T02:16:27.479Z,16.00
2018-07-10T02:18:56.447Z,16.00
2018-07-10T02:21:25.058Z,16.00
2018-07-10T02:23:54.077Z,15.90
2018-07-10T02:26:24.035Z,15.90
2018-07-10T02:28:53.330Z,15.80
2018-07-10T02:31:21.806Z,15.80
2018-07-10T02:33:51.098Z,15.80
2018-07-10T02:36:20.388Z,15.70
2018-07-10T02:41:19.717Z,15.70
2018-07-10T02:44:00.501Z,15.60
2018-07-10T02:46:30.190Z,15.70
2018-07-10T02:49:19.755Z,15.70
2018-07-10T02:51:55.187Z,15.70
2018-07-10T02:54:26.209Z,15.60
2018-07-10T02:56:56.241Z,15.60
2018-07-10T02:59:31.689Z,15.50
2018-07-10T03:02:00.219Z,15.40
2018-07-10T03:04:28.846Z,15.30
2018-07-10T03:06:57.498Z,15.30
2018-07-10T03:09:26.013Z,15.30
2018-07-10T03:11:54.537Z,15.30
2018-07-10T03:14:23.374Z,15.40
2018-07-10T03:16:51.858Z,15.40
2018-07-10T03:19:21.798Z,15.40
2018-07-10T03:21:50.327Z,15.50
2018-07-10T03:24:18.806Z,15.50
2018-07-10T03:26:47.342Z,15.50
2018-07-10T03:31:43.999Z,15.50
2018-07-10T03:34:12.496Z,15.40
2018-07-10T03:36:41.002Z,15.40
2018-07-10T03:39:09.518Z,15.40
2018-07-10T03:41:38.046Z,15.40
2018-07-10T03:44:06.751Z,15.40
2018-07-10T03:46:35.409Z,15.30
2018-07-10T03:49:04.312Z,15.30
2018-07-10T03:51:32.858Z,15.40
2018-07-10T03:56:29.519Z,15.40
2018-07-10T04:01:32.990Z,15.50
2018-07-10T04:04:01.573Z,15.50
2018-07-10T04:06:30.083Z,15.40
2018-07-10T04:08:59.724Z,15.40
2018-07-10T04:11:28.257Z,15.40
2018-07-10T04:13:56.846Z,15.40
2018-07-10T04:16:25.385Z,15.50
2018-07-10T04:18:53.923Z,15.60
2018-07-10T04:24:03.554Z,15.70
2018-07-10T04:26:34.762Z,15.70
2018-07-10T04:29:09.469Z,15.80
2018-07-10T04:31:44.492Z,15.70
2018-07-10T04:34:13.009Z,15.60
2018-07-10T04:36:41.527Z,15.70
2018-07-10T04:39:10.077Z,15.70
2018-07-10T04:41:41.874Z,15.80
2018-07-10T04:44:13.417Z,15.80
2018-07-10T04:46:49.806Z,15.80
2018-07-10T04:52:29.699Z,16.00
2018-07-10T04:55:09.133Z,16.10
2018-07-10T04:58:42.116Z,16.10
2018-07-10T05:01:10.620Z,16.10
2018-07-10T05:03:39.166Z,16.20
2018-07-10T05:06:08.257Z,16.30
2018-07-10T05:08:36.833Z,16.30
2018-07-10T05:11:05.366Z,16.30
2018-07-10T05:13:33.918Z,16.20
2018-07-10T05:16:04.365Z,16.30
2018-07-10T05:18:33.765Z,16.30
2018-07-10T05:21:07.230Z,16.20
2018-07-10T05:26:03.982Z,16.00
2018-07-10T05:28:32.507Z,16.00
2018-07-10T05:31:01.891Z,16.00
2018-07-10T05:33:30.558Z,16.00
2018-07-10T05:38:38.878Z,16.10
2018-07-10T05:41:07.997Z,16.10
2018-07-10T05:43:46.801Z,16.00
2018-07-10T05:49:02.094Z,16.20
2018-07-10T05:51:34.221Z,16.20
2018-07-10T05:54:05.406Z,16.10
2018-07-10T05:59:03.489Z,15.90
2018-07-10T06:01:32.211Z,15.90
2018-07-10T06:04:00.714Z,15.80
2018-07-10T06:06:29.227Z,15.90
2018-07-10T06:08:58.030Z,15.90
2018-07-10T06:11:26.614Z,15.90
2018-07-10T06:13:55.677Z,15.90
2018-07-10T06:16:24.187Z,16.00
2018-07-10T06:21:22.512Z,16.00
2018-07-10T06:23:52.123Z,16.00
2018-07-10T06:26:20.604Z,16.00
2018-07-10T06:28:56.841Z,16.00
2018-07-10T06:31:26.219Z,16.00
2018-07-10T06:34:03.722Z,16.10
2018-07-10T06:36:36.239Z,15.90
2018-07-10T06:39:14.533Z,15.70
2018-07-10T06:41:52.262Z,15.70
2018-07-10T06:44:21.434Z,15.80
2018-07-10T06:46:54.187Z,15.80
2018-07-10T06:49:30.184Z,16.00
2018-07-10T06:52:18.777Z,15.90
2018-07-10T06:54:54.537Z,15.90
2018-07-10T06:59:54.318Z,15.90
2018-07-10T07:02:22.880Z,16.10
2018-07-10T07:04:51.393Z,16.20
2018-07-10T07:07:19.914Z,16.10
2018-07-10T07:12:16.566Z,16.20
2018-07-10T07:17:13.382Z,16.10
2018-07-10T07:19:42.114Z,16.20
2018-07-10T07:22:10.650Z,16.30
2018-07-10T07:24:39.159Z,16.40
2018-07-10T07:29:35.839Z,16.70
2018-07-10T07:32:04.508Z,16.70
2018-07-10T07:34:34.469Z,16.60
2018-07-10T07:37:02.951Z,16.50
2018-07-10T07:39:33.400Z,16.40
2018-07-10T07:44:30.129Z,16.50
2018-07-10T07:46:58.646Z,16.50
2018-07-10T07:49:28.681Z,16.50
2018-07-10T07:54:25.402Z,16.50
2018-07-10T07:56:53.911Z,16.60
2018-07-10T07:59:22.391Z,16.60
2018-07-10T08:01:52.083Z,16.80
2018-07-10T08:04:20.678Z,17.00
2018-07-10T08:06:49.161Z,17.10
2018-07-10T08:09:17.706Z,17.20
2018-07-10T08:11:46.231Z,17.30
2018-07-10T08:16:45.326Z,17.30
2018-07-10T08:19:15.028Z,17.40
2018-07-10T08:21:46.603Z,17.30
2018-07-10T08:26:44.703Z,17.60
2018-07-10T08:31:41.792Z,17.70
2018-07-10T08:34:10.429Z,17.30
2018-07-10T08:36:38.965Z,17.40
2018-07-10T08:39:07.598Z,17.60
2018-07-10T08:41:43.270Z,17.90
2018-07-10T08:44:12.154Z,18.00
2018-07-10T08:49:09.707Z,18.40
2018-07-10T08:51:38.503Z,18.70
2018-07-10T08:54:06.985Z,19.30
2018-07-10T08:56:35.510Z,19.60
2018-07-10T08:59:04.039Z,20.00
2018-07-10T09:01:33.122Z,20.60
2018-07-10T09:04:01.629Z,21.00
2018-07-10T09:08:58.293Z,20.50
2018-07-10T09:11:26.805Z,20.10
2018-07-10T09:13:55.331Z,19.70
2018-07-10T09:16:23.814Z,19.30
2018-07-10T09:18:52.330Z,19.40
2018-07-10T09:21:20.872Z,19.80
2018-07-10T09:23:49.388Z,20.00
2018-07-10T09:26:17.906Z,20.60
2018-07-10T09:28:46.450Z,20.60
2018-07-10T09:31:14.966Z,19.80
2018-07-10T09:33:43.472Z,19.40
2018-07-10T09:36:11.989Z,19.20
2018-07-10T09:38:40.577Z,19.10
2018-07-10T09:41:09.253Z,18.80
2018-07-10T09:46:06.698Z,18.80
2018-07-10T09:48:35.249Z,19.10
2018-07-10T09:51:03.734Z,19.50
2018-07-10T09:53:32.243Z,19.20
2018-07-10T09:56:00.711Z,19.10
2018-07-10T09:58:29.251Z,19.70
2018-07-10T10:01:04.498Z,20.00
2018-07-10T10:03:33.033Z,20.00
2018-07-10T10:06:01.541Z,19.60
2018-07-10T10:08:30.128Z,20.00
2018-07-10T10:10:58.564Z,20.20
2018-07-10T10:13:27.062Z,20.10
2018-07-10T10:18:23.718Z,20.40
2018-07-10T10:23:20.622Z,20.10
2018-07-10T10:25:50.111Z,19.70
2018-07-10T10:28:21.508Z,20.30
2018-07-10T10:30:50.010Z,19.90
2018-07-10T10:35:46.668Z,19.70
2018-07-10T10:38:15.531Z,19.40
2018-07-10T10:40:45.081Z,19.20
2018-07-10T10:43:13.589Z,19.20
2018-07-10T10:45:43.034Z,19.30
2018-07-10T10:48:14.069Z,19.20
2018-07-10T10:50:48.526Z,19.40
2018-07-10T10:53:18.093Z,20.10
2018-07-10T10:55:46.627Z,19.90
2018-07-10T10:58:15.201Z,20.20
2018-07-10T11:00:43.923Z,20.20
2018-07-10T11:03:12.456Z,19.90
2018-07-10T11:05:41.220Z,19.90
2018-07-10T11:08:09.740Z,20.40
2018-07-10T11:10:38.242Z,20.60
2018-07-10T11:13:06.839Z,20.80
2018-07-10T11:15:40.746Z,22.50
2018-07-10T11:18:11.125Z,22.30
2018-07-10T11:20:52.681Z,23.70
2018-07-10T11:23:37.215Z,24.50
2018-07-10T11:26:08.898Z,22.60
2018-07-10T11:28:37.437Z,21.30
2018-07-10T11:31:05.918Z,22.10
2018-07-10T11:33:34.455Z,22.40
2018-07-10T11:38:31.126Z,21.80
2018-07-10T11:40:59.636Z,21.80
2018-07-10T11:43:28.171Z,22.00
2018-07-10T11:45:56.702Z,21.90
2018-07-10T11:48:25.254Z,21.50
2018-07-10T11:50:53.746Z,22.00
2018-07-10T11:53:22.306Z,22.90
2018-07-10T11:55:50.806Z,23.50
2018-07-10T11:58:19.281Z,23.60
2018-07-10T12:00:47.818Z,24.10
2018-07-10T12:03:16.322Z,25.00
2018-07-10T12:05:44.833Z,24.60
2018-07-10T12:08:13.314Z,23.80
2018-07-10T12:10:41.841Z,23.10
2018-07-10T12:13:10.322Z,23.30
2018-07-10T12:15:38.863Z,22.70
2018-07-10T12:18:07.353Z,22.30
2018-07-10T12:20:41.454Z,22.20
2018-07-10T12:23:10.702Z,22.10
2018-07-10T12:25:44.895Z,22.20
2018-07-10T12:28:14.366Z,22.60
2018-07-10T12:30:42.912Z,22.40
2018-07-10T12:35:39.654Z,22.10
2018-07-10T12:38:08.109Z,22.00
2018-07-10T12:40:36.692Z,21.40
2018-07-10T12:43:05.205Z,22.40
2018-07-10T12:45:33.719Z,22.50
2018-07-10T12:48:02.228Z,22.00
2018-07-10T12:50:30.721Z,22.40
2018-07-10T12:52:59.225Z,22.20
2018-07-10T12:55:27.857Z,21.60
2018-07-10T12:57:57.149Z,22.30
2018-07-10T13:00:28.782Z,23.40
2018-07-10T13:02:57.633Z,23.30
2018-07-10T13:05:28.743Z,23.30
2018-07-10T13:07:57.282Z,22.80
2018-07-10T13:10:25.713Z,22.60
2018-07-10T13:12:54.230Z,21.20
2018-07-10T13:15:22.747Z,21.20
2018-07-10T13:17:51.648Z,21.60
2018-07-10T13:20:20.403Z,21.90
2018-07-10T13:22:49.180Z,21.70
2018-07-10T13:25:17.688Z,21.60
2018-07-10T13:27:46.666Z,21.50
2018-07-10T13:30:15.186Z,21.50
2018-07-10T13:32:43.720Z,21.10
2018-07-10T13:35:12.245Z,21.30
2018-07-10T13:37:43.754Z,21.80
2018-07-10T13:40:12.243Z,21.30
2018-07-10T13:45:25.097Z,21.10
2018-07-10T13:47:53.612Z,21.40
2018-07-10T13:50:25.024Z,21.50
2018-07-10T13:52:54.804Z,21.30
2018-07-10T13:55:23.394Z,21.30
2018-07-10T13:58:03.880Z,21.60
2018-07-10T14:00:33.195Z,21.50
2018-07-10T14:03:01.693Z,22.80
2018-07-10T14:05:30.202Z,22.60
2018-07-10T14:07:58.678Z,22.40
2018-07-10T14:10:27.279Z,23.10
2018-07-10T14:12:55.773Z,22.40
2018-07-10T14:17:53.632Z,22.20
2018-07-10T14:20:22.149Z,21.90
2018-07-10T14:22:50.670Z,21.70
2018-07-10T14:25:19.182Z,21.90
2018-07-10T14:27:47.712Z,21.90
2018-07-10T14:30:16.210Z,22.30
2018-07-10T14:32:44.705Z,24.80
2018-07-10T14:35:13.251Z,27.10
2018-07-10T14:37:41.767Z,27.00
2018-07-10T14:40:10.297Z,27.00
2018-07-10T14:45:07.465Z,28.50
2018-07-10T14:47:37.291Z,27.60
2018-07-10T14:50:05.802Z,25.80
2018-07-10T14:52:34.341Z,23.80
2018-07-10T14:55:02.845Z,25.10
2018-07-10T14:57:31.362Z,26.40
2018-07-10T15:00:00.051Z,27.50
2018-07-10T15:02:28.546Z,29.30
2018-07-10T15:04:57.006Z,27.40
2018-07-10T15:07:25.478Z,27.90
2018-07-10T15:09:53.947Z,26.00
2018-07-10T15:12:22.442Z,25.70
2018-07-10T15:14:51.159Z,24.70
2018-07-10T15:17:24.885Z,24.70
2018-07-10T15:19:53.408Z,24.80
2018-07-10T15:22:21.914Z,23.10
2018-07-10T15:24:50.422Z,22.30
2018-07-10T15:27:18.957Z,21.80
2018-07-10T15:29:47.442Z,21.30
2018-07-10T15:32:15.991Z,20.70
2018-07-10T15:34:44.529Z,20.90
2018-07-10T15:39:41.190Z,21.00
2018-07-10T15:42:09.747Z,21.10
2018-07-10T15:44:38.229Z,20.80
2018-07-10T15:47:06.813Z,20.60
2018-07-10T15:49:35.298Z,20.60
2018-07-10T15:52:03.842Z,20.40
2018-07-10T15:54:32.318Z,20.40
2018-07-10T15:57:00.803Z,20.40
2018-07-10T15:59:29.258Z,20.30
2018-07-10T16:01:57.761Z,20.30
2018-07-10T16:04:26.311Z,20.10
2018-07-10T16:06:55.070Z,19.80
2018-07-10T16:09:23.748Z,20.10
2018-07-10T16:11:57.184Z,20.20
2018-07-10T16:14:26.874Z,20.30
2018-07-10T16:19:35.326Z,20.90
2018-07-10T16:22:10.766Z,20.90
2018-07-10T16:24:46.002Z,20.50
2018-07-10T16:27:17.618Z,20.70
2018-07-10T16:29:46.169Z,21.40
2018-07-10T16:32:15.010Z,21.20
2018-07-10T16:34:43.565Z,20.50
2018-07-10T16:37:12.155Z,20.10
2018-07-10T16:39:40.709Z,20.00
2018-07-10T16:42:14.558Z,19.60
2018-07-10T16:44:43.644Z,19.50
2018-07-10T16:47:18.645Z,19.70
2018-07-10T16:49:47.181Z,19.60
2018-07-10T16:52:27.422Z,19.50
2018-07-10T16:54:55.990Z,19.30
2018-07-10T16:57:24.496Z,19.30
2018-07-10T16:59:53.001Z,19.10
2018-07-10T17:02:21.539Z,19.00
2018-07-10T17:04:50.048Z,19.10
2018-07-10T17:07:18.590Z,19.20
2018-07-10T17:09:47.077Z,19.20
2018-07-10T17:12:15.578Z,19.10
2018-07-10T17:17:19.482Z,18.80
2018-07-10T17:19:48.008Z,18.90
2018-07-10T17:22:16.546Z,18.90
2018-07-10T17:24:45.060Z,18.80
2018-07-10T17:27:13.598Z,18.70
2018-07-10T17:29:42.090Z,18.60
2018-07-10T17:32:10.615Z,18.60
2018-07-10T17:34:39.117Z,18.70
2018-07-10T17:37:07.678Z,18.50
2018-07-10T17:39:36.208Z,18.60
2018-07-10T17:42:04.747Z,18.50
2018-07-10T17:44:33.246Z,18.40
2018-07-10T17:47:01.804Z,18.40
2018-07-10T17:49:30.306Z,18.30
2018-07-10T17:51:58.820Z,18.40
2018-07-10T17:54:27.383Z,18.20
2018-07-10T17:56:55.897Z,18.00
2018-07-10T18:01:52.586Z,18.00
2018-07-10T18:04:21.041Z,18.00
2018-07-10T18:09:17.686Z,18.00
2018-07-10T18:11:46.202Z,18.00
2018-07-10T18:14:14.726Z,18.00
2018-07-10T18:16:43.230Z,18.00
2018-07-10T18:19:11.775Z,18.00
2018-07-10T18:21:40.314Z,17.90
2018-07-10T18:24:08.846Z,17.80
2018-07-10T18:26:37.333Z,17.70
2018-07-10T18:29:05.894Z,17.70
2018-07-10T18:31:34.417Z,17.60
2018-07-10T18:34:02.974Z,17.50
2018-07-10T18:36:31.488Z,17.50
2018-07-10T18:39:00.043Z,17.40
2018-07-10T18:41:28.527Z,17.30
2018-07-10T18:43:57.041Z,17.30
2018-07-10T18:51:28.738Z,17.20
2018-07-10T18:53:57.263Z,17.10
2018-07-10T18:56:25.825Z,17.10
2018-07-10T18:59:05.205Z,17.00
2018-07-10T19:01:48.655Z,16.90
2018-07-10T19:06:45.309Z,16.80
2018-07-10T19:12:02.218Z,16.80
2018-07-10T19:14:30.766Z,16.70
2018-07-10T19:16:59.282Z,16.70
2018-07-10T19:19:27.935Z,16.70
2018-07-10T19:22:02.086Z,16.80
2018-07-10T19:24:30.741Z,16.80
2018-07-10T19:27:00.063Z,16.60
2018-07-10T19:29:46.511Z,16.60
2018-07-10T19:32:15.205Z,16.70
2018-07-10T19:34:43.890Z,16.70
2018-07-10T19:37:12.357Z,16.70
2018-07-10T19:39:40.862Z,16.70
2018-07-10T19:42:09.389Z,16.70
2018-07-10T19:47:06.202Z,16.70
2018-07-10T19:49:36.955Z,16.60
2018-07-10T19:54:33.674Z,16.70
2018-07-10T19:57:04.416Z,16.70
2018-07-10T19:59:33.002Z,16.70
2018-07-10T20:02:02.829Z,16.70
2018-07-10T20:05:11.733Z,16.70
2018-07-10T20:07:43.965Z,16.70
2018-07-10T20:12:51.072Z,16.60
2018-07-10T20:16:30.946Z,16.70
2018-07-10T20:19:10.559Z,16.70
2018-07-10T20:24:16.850Z,16.60
2018-07-10T20:28:57.938Z,16.60
2018-07-10T20:32:37.508Z,16.50
2018-07-10T20:35:15.386Z,16.60
2018-07-10T20:37:44.607Z,16.50
2018-07-10T20:40:15.898Z,16.50
2018-07-10T20:42:44.809Z,16.50
2018-07-10T20:45:13.238Z,16.60
2018-07-10T20:47:50.177Z,16.50
2018-07-10T20:52:59.434Z,16.40
2018-07-10T20:55:33.860Z,16.40
2018-07-10T20:58:06.878Z,16.30
2018-07-10T21:00:38.084Z,16.40
2018-07-10T21:03:17.993Z,16.20
2018-07-10T21:05:47.973Z,16.20
2018-07-10T21:08:21.416Z,16.20
2018-07-10T21:10:52.725Z,16.10
2018-07-10T21:13:32.061Z,16.10
2018-07-10T21:16:11.195Z,16.10
2018-07-10T21:18:47.978Z,15.90
2018-07-10T21:23:32.637Z,15.70
2018-07-10T21:27:09.182Z,15.60
2018-07-10T21:30:44.226Z,15.40
2018-07-10T21:34:20.999Z,15.40
2018-07-10T21:40:04.264Z,15.50
2018-07-10T21:43:46.269Z,15.50
2018-07-10T21:46:21.837Z,15.50
2018-07-10T21:49:30.137Z,15.50
2018-07-10T21:51:58.677Z,15.50
2018-07-10T21:54:27.199Z,15.50
2018-07-10T21:56:55.757Z,15.60
2018-07-10T21:59:24.834Z,15.60
2018-07-10T22:02:11.862Z,15.50
2018-07-10T22:04:40.759Z,15.50
2018-07-10T22:07:12.910Z,15.50
2018-07-10T22:12:13.299Z,15.50
2018-07-10T22:14:41.948Z,15.50
2018-07-10T22:17:17.383Z,15.50
2018-07-10T22:19:47.096Z,15.50
2018-07-10T22:22:25.009Z,15.40
2018-07-10T22:24:54.588Z,15.20
2018-07-10T22:27:24.010Z,15.20
2018-07-10T22:30:03.726Z,15.20
2018-07-10T22:32:41.137Z,15.10
2018-07-10T22:37:37.868Z,15.10
2018-07-10T22:40:07.302Z,15.00
2018-07-10T22:45:03.994Z,14.80
2018-07-10T22:47:36.336Z,14.80
2018-07-10T22:50:14.642Z,14.70
2018-07-10T22:52:47.733Z,14.70
2018-07-10T22:55:19.491Z,14.70
2018-07-10T22:57:48.081Z,14.90
2018-07-10T23:00:21.166Z,14.90
2018-07-10T23:02:49.673Z,14.80
2018-07-10T23:05:18.227Z,14.80
2018-07-10T23:07:46.744Z,14.70
2018-07-10T23:10:15.258Z,14.70
2018-07-10T23:12:43.831Z,14.60
2018-07-10T23:15:12.331Z,14.60
2018-07-10T23:17:40.879Z,14.50
2018-07-10T23:20:09.391Z,14.50
2018-07-10T23:22:49.194Z,14.50
2018-07-10T23:25:17.707Z,14.50
2018-07-10T23:27:46.220Z,14.40
2018-07-10T23:32:43.369Z,14.50
2018-07-10T23:37:44.619Z,14.60
2018-07-10T23:40:13.169Z,14.50
2018-07-10T23:42:41.683Z,14.50
2018-07-10T23:45:13.729Z,14.60
2018-07-10T23:47:42.537Z,14.60
2018-07-10T23:50:18.000Z,14.60
2018-07-10T23:53:29.293Z,14.60
2018-07-10T23:55:57.822Z,14.50
2018-07-10T23:58:26.278Z,14.50
